Terminal Aerodrome Forecast
Issued by NWS Knoxville/Tri Cities, TN

Home | Current Version | Previous Version | Text Only | Print | Product List | Glossary On
Versions: 1 2 3 4 5 6 7 8 9 10 11 12 13 14 15 16 17 18 19 20 21 22 23 24 25 26 27 28 29 30
000
FTUS44 KMRX 270638 AAA
TAFCHA
TAF AMD
KCHA 270638Z 2707/2806 36011KT 5SM -RA BR BKN020 OVC080
     FM270800 36012G18KT P6SM BKN015 OVC050
     FM271100 35010KT P6SM OVC025
     FM271400 35012G17KT P6SM SCT025
     FM271700 33011G16KT P6SM SCT050 BKN090
     FM272000 32012KT P6SM OVC050
     FM280200 34009KT P6SM SCT050=

USA.gov is the U.S. government's official web portal to all federal, state and local government web resources and services.